createdAt,value
2023-09-28T00:00:27.554Z,6.80
2023-09-28T00:01:23.758Z,6.50
2023-09-28T00:01:57.511Z,6.80
2023-09-28T00:02:31.446Z,7.00
2023-09-28T00:03:07.137Z,7.60
2023-09-28T00:03:41.532Z,6.90
2023-09-28T00:04:15.312Z,7.30
2023-09-28T00:04:48.763Z,6.80
2023-09-28T00:05:22.801Z,7.10
2023-09-28T00:05:56.419Z,6.60
2023-09-28T00:06:30.429Z,6.70
2023-09-28T00:07:04.110Z,6.90
2023-09-28T00:07:37.936Z,7.10
2023-09-28T00:08:11.564Z,6.80
2023-09-28T00:08:45.159Z,6.80
2023-09-28T00:09:18.879Z,6.90
2023-09-28T00:09:52.616Z,6.70
2023-09-28T00:10:26.140Z,6.60
2023-09-28T00:11:00.791Z,7.10
2023-09-28T00:11:34.223Z,7.30
2023-09-28T00:12:07.747Z,6.70
2023-09-28T00:12:51.811Z,6.70
2023-09-28T00:13:25.523Z,6.60
2023-09-28T00:14:01.205Z,6.90
2023-09-28T00:14:38.331Z,6.90
2023-09-28T00:15:13.733Z,6.90
2023-09-28T00:15:48.299Z,6.70
2023-09-28T00:16:21.927Z,6.80
2023-09-28T00:16:56.628Z,6.90
2023-09-28T00:17:30.385Z,7.00
2023-09-28T00:18:05.370Z,7.20
2023-09-28T00:18:38.850Z,7.20
2023-09-28T00:19:12.461Z,7.40
2023-09-28T00:19:45.894Z,6.70
2023-09-28T00:20:21.741Z,7.10
2023-09-28T00:20:55.288Z,6.90
2023-09-28T00:21:28.814Z,6.70
2023-09-28T00:22:02.186Z,6.90
2023-09-28T00:22:36.204Z,7.40
2023-09-28T00:23:09.810Z,6.90
2023-09-28T00:23:43.261Z,7.10
2023-09-28T00:24:16.701Z,6.60
2023-09-28T00:24:50.088Z,6.50
2023-09-28T00:25:24.932Z,6.20
2023-09-28T00:25:58.942Z,7.00
2023-09-28T00:26:32.621Z,6.60
2023-09-28T00:27:07.005Z,6.30
2023-09-28T00:27:41.535Z,6.40
2023-09-28T00:28:15.123Z,6.50
2023-09-28T00:28:49.826Z,6.50
2023-09-28T00:29:23.406Z,6.30
2023-09-28T00:29:57.535Z,6.50
2023-09-28T00:30:31.840Z,6.30
2023-09-28T00:31:06.950Z,6.00
2023-09-28T00:31:40.675Z,5.80
2023-09-28T00:32:14.437Z,6.10
2023-09-28T00:32:49.050Z,6.50
2023-09-28T00:33:22.748Z,6.10
2023-09-28T00:33:56.588Z,6.10
2023-09-28T00:34:30.305Z,6.30
2023-09-28T00:35:05.755Z,6.20
2023-09-28T00:35:40.037Z,6.30
2023-09-28T00:36:13.889Z,6.40
2023-09-28T00:36:47.744Z,6.50
2023-09-28T00:37:21.288Z,6.50
2023-09-28T00:37:55.080Z,6.40
2023-09-28T00:38:28.842Z,6.50
2023-09-28T00:39:02.590Z,6.50
2023-09-28T00:39:36.831Z,6.20
2023-09-28T00:40:22.655Z,6.40
2023-09-28T00:40:56.342Z,6.60
2023-09-28T00:41:30.120Z,6.40
2023-09-28T00:42:06.728Z,6.40
2023-09-28T00:42:40.385Z,6.70
2023-09-28T00:43:13.929Z,6.80
2023-09-28T00:43:47.547Z,6.20
2023-09-28T00:44:21.104Z,7.00
2023-09-28T00:44:54.732Z,6.80
2023-09-28T00:45:29.732Z,7.20
2023-09-28T00:46:04.644Z,7.50
2023-09-28T00:46:39.096Z,6.80
2023-09-28T00:47:13.053Z,7.40
2023-09-28T00:47:47.470Z,7.30
2023-09-28T00:48:21.845Z,7.40
2023-09-28T00:49:06.734Z,6.90
2023-09-28T00:49:40.591Z,6.80
2023-09-28T00:50:17.530Z,6.90
2023-09-28T00:50:53.079Z,7.00
2023-09-28T00:51:29.229Z,6.70
2023-09-28T00:52:02.797Z,6.90
2023-09-28T00:52:42.232Z,6.90
2023-09-28T00:53:16.175Z,6.50
2023-09-28T00:53:49.663Z,6.60
2023-09-28T00:54:23.347Z,6.90
2023-09-28T00:55:00.498Z,7.20
2023-09-28T00:55:34.285Z,6.90
2023-09-28T00:56:09.215Z,6.90
2023-09-28T00:56:43.441Z,6.70
2023-09-28T00:57:19.003Z,6.40
2023-09-28T00:57:53.290Z,6.60
2023-09-28T00:58:26.825Z,6.50
2023-09-28T00:59:01.468Z,6.30
2023-09-28T00:59:35.292Z,6.10
2023-09-28T01:00:25.229Z,6.20
2023-09-28T01:01:01.810Z,5.90
2023-09-28T01:01:35.514Z,6.00
2023-09-28T01:02:09.615Z,5.90
2023-09-28T01:02:44.982Z,6.10
2023-09-28T01:03:18.769Z,6.00
2023-09-28T01:03:52.742Z,6.40
2023-09-28T01:04:27.807Z,6.10
2023-09-28T01:05:01.437Z,6.30
2023-09-28T01:05:35.940Z,5.80
2023-09-28T01:06:09.518Z,6.30
2023-09-28T01:06:43.258Z,6.30
2023-09-28T01:07:27.471Z,6.50
2023-09-28T01:08:13.133Z,6.20
2023-09-28T01:08:46.748Z,6.00
2023-09-28T01:09:20.222Z,5.70
2023-09-28T01:09:54.998Z,6.10
2023-09-28T01:10:30.925Z,6.50
2023-09-28T01:11:06.629Z,6.10
2023-09-28T01:11:42.155Z,6.20
2023-09-28T01:12:16.393Z,6.20
2023-09-28T01:12:50.231Z,6.30
2023-09-28T01:13:25.459Z,6.30
2023-09-28T01:13:59.521Z,6.30
2023-09-28T01:14:34.327Z,6.60
2023-09-28T01:15:12.646Z,5.80
2023-09-28T01:15:50.906Z,6.20
2023-09-28T01:16:25.140Z,6.90
2023-09-28T01:17:00.020Z,6.60
2023-09-28T01:17:34.012Z,6.70
2023-09-28T01:18:18.332Z,6.30
2023-09-28T01:18:52.073Z,6.10
2023-09-28T01:19:25.651Z,6.30
2023-09-28T01:20:01.058Z,6.30
2023-09-28T01:20:39.121Z,6.30
2023-09-28T01:21:12.920Z,6.40
2023-09-28T01:21:46.552Z,6.20
2023-09-28T01:22:20.052Z,7.20
2023-09-28T01:22:55.288Z,6.70
2023-09-28T01:23:28.734Z,6.80
2023-09-28T01:24:04.090Z,6.50
2023-09-28T01:24:38.062Z,6.60
2023-09-28T01:25:12.725Z,6.60
2023-09-28T01:25:48.877Z,6.60
2023-09-28T01:26:23.047Z,6.30
2023-09-28T01:26:56.620Z,7.10
2023-09-28T01:27:30.322Z,6.60
2023-09-28T01:28:05.223Z,6.80
2023-09-28T01:28:39.983Z,6.90
2023-09-28T01:29:13.527Z,6.50
2023-09-28T01:29:47.136Z,6.50
2023-09-28T01:30:20.831Z,6.60
2023-09-28T01:30:54.650Z,7.10
2023-09-28T01:31:29.161Z,7.10
2023-09-28T01:32:03.551Z,6.70
2023-09-28T01:32:37.961Z,6.60
2023-09-28T01:33:11.715Z,6.30
2023-09-28T01:33:45.503Z,6.20
2023-09-28T01:34:19.216Z,6.80
2023-09-28T01:34:52.937Z,6.60
2023-09-28T01:35:28.796Z,6.50
2023-09-28T01:36:02.584Z,6.50
2023-09-28T01:36:36.596Z,6.10
2023-09-28T01:37:10.566Z,6.60
2023-09-28T01:37:52.950Z,6.20
2023-09-28T01:39:02.896Z,6.10
2023-09-28T01:39:36.962Z,6.20
2023-09-28T01:40:11.049Z,6.30
2023-09-28T01:40:45.669Z,6.20
2023-09-28T01:41:19.286Z,6.40
2023-09-28T01:41:52.902Z,6.60
2023-09-28T01:42:26.687Z,6.30
2023-09-28T01:43:00.402Z,6.40
2023-09-28T01:43:36.593Z,6.10
2023-09-28T01:44:10.417Z,6.30
2023-09-28T01:44:44.263Z,6.20
2023-09-28T01:45:18.735Z,6.50
2023-09-28T01:45:52.490Z,6.80
2023-09-28T01:46:26.204Z,6.60
2023-09-28T01:46:59.945Z,6.50
2023-09-28T01:47:33.854Z,6.40
2023-09-28T01:48:08.105Z,6.40
2023-09-28T01:48:41.930Z,5.90
2023-09-28T01:51:18.229Z,6.30
2023-09-28T01:51:51.674Z,6.80
2023-09-28T01:52:25.167Z,7.00
2023-09-28T01:52:58.711Z,7.10
2023-09-28T01:53:32.153Z,7.40
2023-09-28T01:54:06.217Z,7.00
2023-09-28T01:54:39.681Z,7.30
2023-09-28T01:55:13.279Z,7.10
2023-09-28T01:55:48.697Z,6.80
2023-09-28T01:56:22.770Z,6.70
2023-09-28T01:56:56.439Z,7.20
2023-09-28T01:57:30.029Z,7.00
2023-09-28T01:58:09.398Z,7.00
2023-09-28T01:58:42.951Z,6.50
2023-09-28T01:59:16.476Z,7.10
2023-09-28T01:59:49.989Z,6.50
2023-09-28T02:00:26.601Z,6.50
2023-09-28T02:01:00.148Z,7.20
2023-09-28T02:01:33.810Z,7.30
2023-09-28T02:02:07.388Z,7.00
2023-09-28T02:02:41.330Z,6.70
2023-09-28T02:03:16.548Z,7.00
2023-09-28T02:03:50.043Z,6.90
2023-09-28T02:04:24.223Z,6.90
2023-09-28T02:04:58.174Z,7.00
2023-09-28T02:05:34.178Z,6.70
2023-09-28T02:06:07.734Z,6.90
2023-09-28T02:06:41.080Z,6.90
2023-09-28T02:07:15.805Z,6.80
2023-09-28T02:07:50.374Z,6.90
2023-09-28T02:08:23.825Z,6.60
2023-09-28T02:08:57.135Z,6.80
2023-09-28T02:09:30.631Z,7.30
2023-09-28T02:10:06.001Z,6.60
2023-09-28T02:10:39.503Z,7.10
2023-09-28T02:11:13.048Z,7.30
2023-09-28T02:11:46.717Z,6.80
2023-09-28T02:12:20.941Z,7.10
2023-09-28T02:12:54.608Z,6.70
2023-09-28T02:13:28.029Z,7.00
2023-09-28T02:14:01.871Z,7.00
2023-09-28T02:14:35.508Z,7.10
2023-09-28T02:15:11.313Z,6.90
2023-09-28T02:15:44.947Z,6.80
2023-09-28T02:16:18.952Z,6.80
2023-09-28T02:16:52.590Z,6.90
2023-09-28T02:17:26.086Z,6.60
2023-09-28T02:17:59.634Z,6.30
2023-09-28T02:18:33.210Z,6.80
2023-09-28T02:19:07.109Z,6.60
2023-09-28T02:19:40.644Z,7.00
2023-09-28T02:20:17.320Z,7.00
2023-09-28T02:20:51.126Z,6.80
2023-09-28T02:21:24.590Z,6.80
2023-09-28T02:21:58.379Z,6.70
2023-09-28T02:22:31.914Z,6.70
2023-09-28T02:23:05.497Z,6.50
2023-09-28T02:23:38.784Z,6.70
2023-09-28T02:24:12.621Z,6.60
2023-09-28T02:24:48.290Z,6.80
2023-09-28T02:25:25.358Z,6.20
2023-09-28T02:26:06.935Z,6.80
2023-09-28T02:26:40.464Z,6.20
2023-09-28T02:27:14.622Z,6.90
2023-09-28T02:27:49.188Z,6.60
2023-09-28T02:28:22.661Z,6.50
2023-09-28T02:28:56.098Z,6.70
2023-09-28T02:29:29.570Z,6.40
2023-09-28T02:30:04.722Z,6.80
2023-09-28T02:30:38.046Z,6.50
2023-09-28T02:31:11.488Z,6.40
2023-09-28T02:31:45.133Z,6.50
2023-09-28T02:32:18.737Z,6.60
2023-09-28T02:32:53.770Z,7.30
2023-09-28T02:33:27.282Z,6.60
2023-09-28T02:34:00.863Z,6.90
2023-09-28T02:34:34.863Z,6.70
2023-09-28T02:35:08.902Z,6.30
2023-09-28T02:35:42.216Z,6.60
2023-09-28T02:36:16.322Z,6.30
2023-09-28T02:36:49.826Z,6.00
2023-09-28T02:37:23.414Z,6.50
2023-09-28T02:37:57.011Z,6.20
2023-09-28T02:38:30.893Z,6.80
2023-09-28T02:39:08.774Z,6.70
2023-09-28T02:39:42.579Z,7.10
2023-09-28T02:40:17.256Z,6.40
2023-09-28T02:40:50.732Z,6.10
2023-09-28T02:41:24.512Z,6.30
2023-09-28T02:41:57.971Z,6.40
2023-09-28T02:42:31.436Z,6.20
2023-09-28T02:43:04.914Z,6.20
2023-09-28T02:43:38.408Z,6.40
2023-09-28T02:44:11.997Z,6.30
2023-09-28T02:44:45.936Z,6.20
2023-09-28T02:45:19.350Z,6.00
2023-09-28T02:45:53.297Z,6.20
2023-09-28T02:46:27.924Z,6.20
2023-09-28T02:47:01.821Z,5.70
2023-09-28T02:47:35.704Z,6.30
2023-09-28T02:48:09.986Z,6.50
2023-09-28T02:48:43.494Z,6.20
2023-09-28T02:49:16.893Z,6.60
2023-09-28T02:49:50.429Z,6.00
2023-09-28T02:50:23.864Z,6.10
2023-09-28T02:50:57.246Z,6.40
2023-09-28T02:51:30.610Z,6.20
2023-09-28T02:52:07.589Z,6.10
2023-09-28T02:52:42.644Z,5.80
2023-09-28T02:53:16.356Z,6.00
2023-09-28T02:53:50.299Z,5.80
2023-09-28T02:54:23.716Z,5.90
2023-09-28T02:54:57.126Z,5.80
2023-09-28T02:55:30.444Z,6.10
2023-09-28T02:56:07.028Z,5.90
2023-09-28T02:56:40.683Z,5.70
2023-09-28T02:57:14.564Z,6.10
2023-09-28T02:57:49.035Z,5.80
2023-09-28T02:58:23.666Z,5.80
2023-09-28T02:58:58.314Z,6.40
2023-09-28T02:59:32.732Z,6.20
2023-09-28T03:00:25.165Z,5.90
2023-09-28T03:00:59.129Z,5.50
2023-09-28T03:01:32.536Z,6.10
2023-09-28T03:02:06.786Z,6.10
2023-09-28T03:02:40.409Z,6.20
2023-09-28T03:03:13.980Z,5.70
2023-09-28T03:03:47.327Z,5.80
2023-09-28T03:04:20.571Z,5.80
2023-09-28T03:04:54.212Z,5.70
2023-09-28T03:05:29.653Z,6.20
2023-09-28T03:06:05.926Z,5.80
2023-09-28T03:06:41.795Z,6.00
2023-09-28T03:07:15.220Z,6.10
2023-09-28T03:07:49.205Z,6.30
2023-09-28T03:08:25.616Z,6.20
2023-09-28T03:08:58.986Z,5.90
2023-09-28T03:09:34.207Z,6.30
2023-09-28T03:10:08.471Z,6.10
2023-09-28T03:10:46.003Z,6.10
2023-09-28T03:11:19.523Z,6.30
2023-09-28T03:11:52.932Z,6.00
2023-09-28T03:12:26.354Z,6.80
2023-09-28T03:12:59.906Z,6.20
2023-09-28T03:13:33.559Z,6.30
2023-09-28T03:14:09.216Z,6.40
2023-09-28T03:14:43.372Z,6.00
2023-09-28T03:15:17.903Z,6.40
2023-09-28T03:15:51.348Z,5.70
2023-09-28T03:16:24.786Z,6.60
2023-09-28T03:16:58.348Z,6.30
2023-09-28T03:17:31.688Z,6.30
2023-09-28T03:18:05.673Z,6.20
2023-09-28T03:18:39.475Z,6.10
2023-09-28T03:19:12.859Z,6.10
2023-09-28T03:19:46.274Z,6.00
2023-09-28T03:20:20.884Z,6.60
2023-09-28T03:20:54.714Z,5.90
2023-09-28T03:21:31.010Z,6.40
2023-09-28T03:22:04.204Z,6.20
2023-09-28T03:22:37.630Z,6.60
2023-09-28T03:23:10.880Z,6.60
2023-09-28T03:23:44.425Z,6.40
2023-09-28T03:24:17.785Z,6.40
2023-09-28T03:24:51.131Z,6.70
2023-09-28T03:25:24.473Z,6.50
2023-09-28T03:25:57.827Z,6.70
2023-09-28T03:26:31.871Z,6.70
2023-09-28T03:27:10.896Z,6.40
2023-09-28T03:27:46.631Z,6.60
2023-09-28T03:28:20.177Z,6.50
2023-09-28T03:28:53.739Z,6.70
2023-09-28T03:29:27.124Z,6.30
2023-09-28T03:30:00.559Z,6.90
2023-09-28T03:30:34.058Z,6.70
2023-09-28T03:31:07.821Z,6.20
2023-09-28T03:31:41.708Z,6.50
2023-09-28T03:32:15.178Z,6.70
2023-09-28T03:32:49.226Z,6.60
2023-09-28T03:33:22.677Z,6.30
2023-09-28T03:33:56.708Z,6.30
2023-09-28T03:34:30.078Z,6.50
2023-09-28T03:35:05.553Z,6.70
2023-09-28T03:35:38.863Z,6.40
2023-09-28T03:36:14.081Z,6.40
2023-09-28T03:36:47.707Z,6.30
2023-09-28T03:37:21.073Z,6.60
2023-09-28T03:37:55.766Z,6.90
2023-09-28T03:38:29.312Z,6.80
2023-09-28T03:39:02.648Z,6.50
2023-09-28T03:39:36.157Z,6.30
2023-09-28T03:40:12.230Z,7.10
2023-09-28T03:40:46.091Z,6.70
2023-09-28T03:41:19.645Z,6.70
2023-09-28T03:41:53.012Z,6.50
2023-09-28T03:42:27.373Z,6.80
2023-09-28T03:43:00.934Z,6.80
2023-09-28T03:43:34.900Z,7.00
2023-09-28T03:44:08.857Z,7.00
2023-09-28T03:44:42.198Z,6.90
2023-09-28T03:45:17.793Z,6.80
2023-09-28T03:45:51.417Z,6.80
2023-09-28T03:46:25.062Z,6.70
2023-09-28T03:46:58.600Z,6.20
2023-09-28T03:47:34.777Z,6.40
2023-09-28T03:48:08.186Z,6.10
2023-09-28T03:48:41.489Z,6.70
2023-09-28T03:49:14.954Z,6.20
2023-09-28T03:49:48.493Z,6.60
2023-09-28T03:50:24.192Z,6.90
2023-09-28T03:50:58.308Z,6.70
2023-09-28T03:51:31.772Z,6.80
2023-09-28T03:52:05.122Z,6.70
2023-09-28T03:52:39.091Z,7.10
2023-09-28T03:53:12.500Z,6.80
2023-09-28T03:53:45.828Z,6.80
2023-09-28T03:54:19.482Z,7.30
2023-09-28T03:54:53.637Z,6.80
2023-09-28T03:55:26.973Z,6.50
2023-09-28T03:56:00.495Z,6.90
2023-09-28T03:56:34.032Z,6.40
2023-09-28T03:57:07.480Z,6.40
2023-09-28T03:57:42.518Z,6.30
2023-09-28T03:58:17.110Z,6.80
2023-09-28T03:58:53.222Z,6.50
2023-09-28T03:59:26.712Z,6.80
2023-09-28T04:00:00.220Z,7.00
2023-09-28T04:00:33.490Z,6.50
2023-09-28T04:01:09.004Z,6.90
2023-09-28T04:01:46.281Z,7.10
2023-09-28T04:02:19.875Z,7.30
2023-09-28T04:02:55.710Z,7.00
2023-09-28T04:03:29.973Z,7.30
2023-09-28T04:04:06.650Z,7.10
2023-09-28T04:04:40.090Z,7.20
2023-09-28T04:05:13.510Z,7.00
2023-09-28T04:05:46.889Z,7.00
2023-09-28T04:06:20.193Z,7.20
2023-09-28T04:06:53.560Z,7.70
2023-09-28T04:07:26.931Z,7.40
2023-09-28T04:08:00.492Z,7.70
2023-09-28T04:08:33.999Z,6.80
2023-09-28T04:09:09.209Z,7.00
2023-09-28T04:09:42.585Z,7.00
2023-09-28T04:10:16.040Z,6.90
2023-09-28T04:10:51.467Z,6.90
2023-09-28T04:11:24.906Z,6.30
2023-09-28T04:11:58.287Z,6.60
2023-09-28T04:12:31.912Z,6.40
2023-09-28T04:13:05.279Z,6.50
2023-09-28T04:13:38.663Z,6.90
2023-09-28T04:14:12.241Z,6.90
2023-09-28T04:14:45.689Z,6.80
2023-09-28T04:15:19.114Z,7.20
2023-09-28T04:15:52.688Z,6.70
2023-09-28T04:16:26.010Z,6.70
2023-09-28T04:16:59.488Z,6.70
2023-09-28T04:17:35.740Z,7.00
2023-09-28T04:18:09.360Z,6.70
2023-09-28T04:18:42.748Z,6.90
2023-09-28T04:19:16.059Z,6.80
2023-09-28T04:19:50.227Z,6.80
2023-09-28T04:20:23.971Z,6.40
2023-09-28T04:20:57.806Z,6.50
2023-09-28T04:21:31.882Z,6.70
2023-09-28T04:22:05.211Z,7.10
2023-09-28T04:22:38.568Z,6.80
2023-09-28T04:23:14.047Z,6.70
2023-09-28T04:23:47.492Z,6.90
2023-09-28T04:24:20.820Z,6.90
2023-09-28T04:24:54.273Z,7.10
2023-09-28T04:25:30.451Z,6.30
2023-09-28T04:26:06.978Z,6.40
2023-09-28T04:26:41.917Z,6.80
2023-09-28T04:27:19.029Z,6.70
2023-09-28T04:27:53.873Z,6.90
2023-09-28T04:28:27.456Z,6.50
2023-09-28T04:29:00.909Z,6.70
2023-09-28T04:29:34.947Z,6.60
2023-09-28T04:30:10.278Z,6.90
2023-09-28T04:30:44.874Z,7.10
2023-09-28T04:31:18.562Z,7.10
2023-09-28T04:31:52.592Z,7.30
2023-09-28T04:32:26.184Z,7.50
2023-09-28T04:32:59.650Z,7.40
2023-09-28T04:33:33.230Z,7.30
2023-09-28T04:34:08.683Z,7.30
2023-09-28T04:34:42.117Z,6.80
2023-09-28T04:35:15.882Z,7.40
2023-09-28T04:35:51.073Z,7.40
2023-09-28T04:36:25.498Z,7.10
2023-09-28T04:36:59.326Z,7.20
2023-09-28T04:37:32.817Z,6.90
2023-09-28T04:38:06.360Z,7.30
2023-09-28T04:38:39.884Z,7.20
2023-09-28T04:39:13.233Z,7.30
2023-09-28T04:39:46.636Z,7.10
2023-09-28T04:40:25.828Z,7.30
2023-09-28T04:41:02.186Z,6.90
2023-09-28T04:41:35.875Z,7.10
2023-09-28T04:42:09.265Z,7.00
2023-09-28T04:42:43.930Z,6.60
2023-09-28T04:43:17.336Z,7.00
2023-09-28T04:43:50.706Z,6.40
2023-09-28T04:44:24.846Z,6.80
2023-09-28T04:44:58.286Z,7.10
2023-09-28T04:45:31.636Z,7.00
2023-09-28T04:46:06.880Z,7.10
2023-09-28T04:46:40.265Z,6.70
2023-09-28T04:47:14.266Z,7.10
2023-09-28T04:47:48.620Z,7.10
2023-09-28T04:48:22.758Z,7.40
2023-09-28T04:48:56.432Z,7.40
2023-09-28T04:49:29.805Z,6.70
2023-09-28T04:50:05.014Z,7.00
2023-09-28T04:50:38.500Z,6.90
2023-09-28T04:51:12.121Z,7.30
2023-09-28T04:51:45.896Z,7.80
2023-09-28T04:52:19.450Z,6.90
2023-09-28T04:52:52.790Z,7.20
2023-09-28T04:53:26.415Z,7.20
2023-09-28T04:54:04.223Z,7.30
2023-09-28T04:54:38.078Z,6.60
2023-09-28T04:55:11.852Z,6.70
2023-09-28T04:55:45.204Z,7.10
2023-09-28T04:56:19.369Z,7.20
2023-09-28T04:56:52.908Z,6.80
2023-09-28T04:57:26.930Z,6.80
2023-09-28T04:58:00.398Z,6.80
2023-09-28T04:58:33.854Z,7.10
2023-09-28T04:59:07.334Z,7.60
2023-09-28T04:59:41.751Z,7.20
2023-09-28T05:00:17.968Z,7.00
2023-09-28T05:00:51.689Z,7.30
2023-09-28T05:01:25.350Z,7.10
2023-09-28T05:01:58.938Z,7.00
2023-09-28T05:02:32.308Z,7.90
2023-09-28T05:03:06.310Z,6.90
2023-09-28T05:03:39.738Z,6.90
2023-09-28T05:04:14.469Z,6.80
2023-09-28T05:04:47.890Z,8.00
2023-09-28T05:05:21.691Z,7.70
2023-09-28T05:05:56.677Z,7.20
2023-09-28T05:06:30.122Z,7.30
2023-09-28T05:07:04.289Z,7.20
2023-09-28T05:07:37.741Z,6.90
2023-09-28T05:08:13.766Z,7.10
2023-09-28T05:08:47.499Z,7.20
2023-09-28T05:09:20.816Z,7.20
2023-09-28T05:09:54.225Z,7.40
2023-09-28T05:10:27.864Z,7.20
2023-09-28T05:11:01.263Z,7.30
2023-09-28T05:11:34.707Z,7.60
2023-09-28T05:12:08.251Z,7.30
2023-09-28T05:12:41.603Z,7.20
2023-09-28T05:13:15.480Z,7.10
2023-09-28T05:13:49.333Z,7.80
2023-09-28T05:14:25.578Z,7.10
2023-09-28T05:14:59.043Z,7.10
2023-09-28T05:15:32.533Z,7.00
2023-09-28T05:16:05.986Z,7.30
2023-09-28T05:16:39.335Z,7.60
2023-09-28T05:17:12.773Z,7.60
2023-09-28T05:17:46.375Z,7.10
2023-09-28T05:18:19.739Z,7.00
2023-09-28T05:18:53.150Z,7.10
2023-09-28T05:19:27.231Z,6.30
2023-09-28T05:20:00.647Z,7.10
2023-09-28T05:20:34.242Z,6.90
2023-09-28T05:21:07.600Z,7.40
2023-09-28T05:21:41.091Z,7.10
2023-09-28T05:22:14.701Z,7.60
2023-09-28T05:22:48.108Z,7.30
2023-09-28T05:23:21.749Z,6.70
2023-09-28T05:23:55.336Z,6.90
2023-09-28T05:24:28.918Z,6.90
2023-09-28T05:25:02.655Z,7.30
2023-09-28T05:25:36.185Z,7.00
2023-09-28T05:26:09.719Z,7.10
2023-09-28T05:26:43.603Z,6.60
2023-09-28T05:27:17.014Z,6.50
2023-09-28T05:27:50.751Z,6.80
2023-09-28T05:28:24.233Z,6.80
2023-09-28T05:28:59.735Z,6.20
2023-09-28T05:29:33.071Z,6.60
2023-09-28T05:30:07.254Z,6.80
2023-09-28T05:30:40.659Z,6.60
2023-09-28T05:31:14.196Z,6.90
2023-09-28T05:31:48.617Z,7.00
2023-09-28T05:32:22.265Z,6.70
2023-09-28T05:32:55.844Z,6.70
2023-09-28T05:33:29.310Z,6.70
2023-09-28T05:34:02.689Z,6.80
2023-09-28T05:34:36.745Z,6.90
2023-09-28T05:35:10.464Z,7.30
2023-09-28T05:35:44.105Z,6.80
2023-09-28T05:36:17.447Z,7.10
2023-09-28T05:36:50.782Z,7.50
2023-09-28T05:37:24.199Z,6.70
2023-09-28T05:37:57.631Z,6.70
2023-09-28T05:38:31.024Z,7.00
2023-09-28T05:39:04.886Z,6.90
2023-09-28T05:39:39.052Z,7.60
2023-09-28T05:40:13.163Z,7.10
2023-09-28T05:40:46.543Z,7.40
2023-09-28T05:41:20.042Z,7.10
2023-09-28T05:41:53.510Z,6.70
2023-09-28T05:42:26.866Z,7.60
2023-09-28T05:43:00.366Z,8.20
2023-09-28T05:43:33.762Z,8.00
2023-09-28T05:44:11.211Z,7.40
2023-09-28T05:44:46.385Z,7.10
2023-09-28T05:45:19.907Z,7.20
2023-09-28T05:45:53.351Z,7.10
2023-09-28T05:46:27.192Z,7.50
2023-09-28T05:47:01.299Z,7.30
2023-09-28T05:47:36.220Z,6.80
2023-09-28T05:48:09.740Z,7.10
2023-09-28T05:48:43.200Z,7.00
2023-09-28T05:49:17.811Z,6.90
2023-09-28T05:49:53.674Z,7.10
2023-09-28T05:50:27.145Z,7.30
2023-09-28T05:51:00.584Z,6.70
2023-09-28T05:51:34.596Z,7.10
2023-09-28T05:52:07.978Z,7.30
2023-09-28T05:52:41.705Z,7.30
2023-09-28T05:53:15.091Z,7.20
2023-09-28T05:53:49.175Z,6.90
2023-09-28T05:54:22.805Z,7.30
2023-09-28T05:54:56.106Z,7.50
2023-09-28T05:55:29.482Z,7.40
2023-09-28T05:56:04.759Z,7.30
2023-09-28T05:56:38.044Z,7.20
2023-09-28T05:57:11.747Z,7.10
2023-09-28T05:57:45.235Z,7.40
2023-09-28T05:58:18.800Z,7.60
2023-09-28T05:58:52.294Z,7.60
2023-09-28T05:59:25.989Z,7.40
2023-09-28T05:59:59.500Z,7.70
2023-09-28T06:00:32.911Z,8.50
2023-09-28T06:01:09.503Z,8.60
2023-09-28T06:01:43.183Z,8.80
2023-09-28T06:02:16.688Z,9.30
2023-09-28T06:02:50.124Z,9.00
2023-09-28T06:03:23.730Z,8.20
2023-09-28T06:03:57.587Z,8.30
2023-09-28T06:04:31.192Z,8.60
2023-09-28T06:05:04.811Z,8.20
2023-09-28T06:05:38.433Z,8.60
2023-09-28T06:06:19.445Z,8.50
2023-09-28T06:06:53.134Z,9.30
2023-09-28T06:07:26.601Z,9.50
2023-09-28T06:08:01.359Z,9.10
2023-09-28T06:08:35.146Z,9.30
2023-09-28T06:09:08.650Z,9.00
2023-09-28T06:09:42.831Z,9.00
2023-09-28T06:10:18.995Z,9.10
2023-09-28T06:11:06.656Z,8.30
2023-09-28T06:11:47.342Z,8.70
2023-09-28T06:12:20.720Z,8.50
2023-09-28T06:12:54.167Z,9.50
2023-09-28T06:13:27.671Z,9.40
2023-09-28T06:14:08.279Z,9.00
2023-09-28T06:15:15.522Z,19.40
2023-09-28T06:15:49.082Z,19.70
2023-09-28T06:16:22.651Z,20.10
2023-09-28T06:16:56.324Z,18.50
2023-09-28T06:17:29.936Z,18.30
2023-09-28T06:18:03.677Z,22.90
2023-09-28T06:18:37.563Z,22.40
2023-09-28T06:19:13.551Z,20.60
2023-09-28T06:20:29.112Z,20.80
2023-09-28T06:21:02.630Z,16.00
2023-09-28T06:21:36.812Z,16.30
2023-09-28T06:22:11.155Z,24.90
2023-09-28T06:22:44.721Z,22.20
2023-09-28T06:23:18.554Z,21.00
2023-09-28T06:23:52.140Z,21.50
2023-09-28T06:24:26.952Z,22.00
2023-09-28T06:25:00.531Z,22.20
2023-09-28T06:25:34.153Z,21.00
2023-09-28T06:26:07.848Z,15.70
2023-09-28T06:26:43.772Z,17.80
2023-09-28T06:27:17.486Z,16.30
2023-09-28T06:27:51.128Z,14.50
2023-09-28T06:28:27.657Z,15.40
2023-09-28T06:29:01.792Z,15.10
2023-09-28T06:29:35.574Z,14.90
2023-09-28T06:30:09.742Z,15.10
2023-09-28T06:30:43.274Z,17.10
2023-09-28T06:31:20.302Z,16.60
2023-09-28T06:31:53.824Z,17.30
2023-09-28T06:32:27.490Z,18.40
2023-09-28T06:33:01.226Z,20.20
2023-09-28T06:33:34.847Z,21.00
2023-09-28T06:34:08.867Z,24.30
2023-09-28T06:34:42.325Z,22.90
2023-09-28T06:35:15.981Z,24.80
2023-09-28T06:35:49.689Z,24.50
2023-09-28T06:36:41.273Z,24.40
2023-09-28T06:37:16.418Z,24.30
2023-09-28T06:37:51.212Z,25.30
2023-09-28T06:38:24.746Z,25.60
2023-09-28T06:38:58.221Z,26.80
2023-09-28T06:39:31.799Z,26.70
2023-09-28T06:40:05.727Z,24.10
2023-09-28T06:40:49.965Z,22.60
2023-09-28T06:41:23.950Z,19.20
2023-09-28T06:42:05.521Z,20.00
2023-09-28T06:42:46.405Z,20.00
2023-09-28T06:43:19.975Z,23.20
2023-09-28T06:43:53.493Z,24.00
2023-09-28T06:44:28.304Z,22.30
2023-09-28T06:45:01.812Z,22.40
2023-09-28T06:45:35.498Z,20.90
2023-09-28T06:46:09.965Z,25.50
2023-09-28T06:46:46.208Z,24.40
2023-09-28T06:47:19.622Z,24.70
2023-09-28T06:48:05.109Z,23.70
2023-09-28T06:48:48.404Z,24.40
2023-09-28T06:49:22.067Z,24.60
2023-09-28T06:49:55.606Z,25.60
2023-09-28T06:50:30.639Z,25.20
2023-09-28T06:51:04.152Z,25.90
2023-09-28T06:51:38.759Z,26.70
2023-09-28T06:52:12.474Z,27.10
2023-09-28T06:52:45.952Z,24.60
2023-09-28T06:53:19.684Z,26.70
2023-09-28T06:53:53.211Z,26.10
2023-09-28T06:54:26.795Z,26.60
2023-09-28T06:55:00.172Z,25.70
2023-09-28T06:55:33.712Z,25.30
2023-09-28T06:56:14.504Z,28.40
2023-09-28T06:56:51.402Z,26.30
2023-09-28T06:57:24.891Z,27.60
2023-09-28T06:57:58.757Z,27.30
2023-09-28T06:58:32.216Z,26.90
2023-09-28T06:59:05.568Z,27.30
2023-09-28T06:59:39.169Z,26.60
2023-09-28T07:00:18.361Z,26.20
2023-09-28T07:00:52.077Z,26.70
2023-09-28T07:01:25.622Z,27.70
2023-09-28T07:01:59.055Z,27.10
2023-09-28T07:02:32.859Z,26.80
2023-09-28T07:03:06.887Z,26.30
2023-09-28T07:03:40.438Z,26.80
2023-09-28T07:04:13.767Z,27.20
2023-09-28T07:04:47.180Z,26.10
2023-09-28T07:05:20.797Z,25.90
2023-09-28T07:05:54.216Z,27.30
2023-09-28T07:06:27.735Z,27.10
2023-09-28T07:07:01.278Z,27.60
2023-09-28T07:07:34.966Z,27.50
2023-09-28T07:08:08.394Z,27.80
2023-09-28T07:08:41.791Z,26.90
2023-09-28T07:09:15.222Z,28.10
2023-09-28T07:09:56.940Z,28.90
2023-09-28T07:10:30.459Z,28.10
2023-09-28T07:11:04.005Z,28.80
2023-09-28T07:11:37.501Z,27.90
2023-09-28T07:12:12.007Z,28.90
2023-09-28T07:12:45.428Z,30.20
2023-09-28T07:13:18.772Z,29.40
2023-09-28T07:13:52.423Z,28.10
2023-09-28T07:14:25.855Z,26.10
2023-09-28T07:14:59.644Z,28.10
2023-09-28T07:15:34.518Z,28.30
2023-09-28T07:16:09.487Z,27.90
2023-09-28T07:16:43.316Z,28.70
2023-09-28T07:17:16.852Z,27.60
2023-09-28T07:17:50.580Z,28.30
2023-09-28T07:18:24.121Z,29.70
2023-09-28T07:18:57.693Z,27.30
2023-09-28T07:19:31.197Z,26.10
2023-09-28T07:20:05.351Z,28.10
2023-09-28T07:20:38.982Z,27.40
2023-09-28T07:21:12.432Z,27.00
2023-09-28T07:21:45.929Z,27.10
2023-09-28T07:22:22.293Z,28.00
2023-09-28T07:22:56.032Z,26.90
2023-09-28T07:23:29.428Z,27.30
2023-09-28T07:24:16.672Z,27.20
2023-09-28T07:24:52.264Z,26.10
2023-09-28T07:25:29.213Z,27.00
2023-09-28T07:26:02.779Z,26.30
2023-09-28T07:26:36.855Z,26.70
2023-09-28T07:27:10.388Z,26.70
2023-09-28T07:27:45.146Z,26.00
2023-09-28T07:28:18.555Z,25.00
2023-09-28T07:28:54.893Z,26.70
2023-09-28T07:29:29.238Z,25.60
2023-09-28T07:30:07.083Z,26.60
2023-09-28T07:30:40.460Z,25.60
2023-09-28T07:31:14.787Z,25.50
2023-09-28T07:31:49.074Z,23.80
2023-09-28T07:32:22.552Z,25.40
2023-09-28T07:32:56.274Z,25.20
2023-09-28T07:33:29.838Z,24.90
2023-09-28T07:34:03.448Z,25.70
2023-09-28T07:34:37.055Z,25.90
2023-09-28T07:35:13.289Z,25.80
2023-09-28T07:35:46.907Z,23.80
2023-09-28T07:36:20.613Z,24.30
2023-09-28T07:36:54.218Z,24.10
2023-09-28T07:37:28.788Z,23.40
2023-09-28T07:38:02.205Z,24.10
2023-09-28T07:38:36.041Z,22.80
2023-09-28T07:39:09.515Z,22.50